Time;durP1;ratioP1;P1;durP2;ratioP2;P2;SDS_P1;SDS_P2;PMS_P1;PMS_P2;Temp;Humidity;BMP_temperature;BMP_pressure;BME280_temperature;BME280_humidity;BME280_pressure;Samples;Min_cycle;Max_cycle;Signal;HPM_P1;HPM_P2
2022/07/28 00:01:51;;;;;;;3.80;3.50;;;16.80;97.10;;;;;;5003202;28;20068;-39
2022/07/28 00:04:16;;;;;;;3.60;3.30;;;16.90;97.10;;;;;;5005338;28;20045;-39
2022/07/28 00:06:42;;;;;;;4.63;3.95;;;16.90;97.60;;;;;;5002358;28;20623;-36
2022/07/28 00:09:08;;;;;;;4.05;3.63;;;16.80;97.60;;;;;;5004599;28;20046;-39
2022/07/28 00:11:33;;;;;;;3.85;3.53;;;16.80;97.90;;;;;;5004066;28;20036;-37
2022/07/28 00:13:59;;;;;;;4.32;3.90;;;16.80;98.10;;;;;;5004117;28;20084;-36
2022/07/28 00:16:25;;;;;;;4.03;3.67;;;16.80;98.40;;;;;;5004377;28;20034;-37
2022/07/28 00:18:50;;;;;;;6.32;3.63;;;16.80;98.30;;;;;;5002630;28;20029;-39
2022/07/28 00:21:16;;;;;;;3.90;3.58;;;16.80;98.30;;;;;;5004059;28;20062;-39
2022/07/28 00:23:42;;;;;;;5.07;4.00;;;16.80;98.60;;;;;;5004583;28;20029;-38
2022/07/28 00:26:08;;;;;;;7.30;4.05;;;16.80;98.50;;;;;;5004324;28;20076;-38
2022/07/28 00:28:34;;;;;;;5.35;4.05;;;16.80;98.50;;;;;;5003424;28;20391;-39
2022/07/28 00:31:00;;;;;;;4.65;4.22;;;16.70;98.70;;;;;;5003258;28;20590;-39
2022/07/28 00:33:26;;;;;;;4.32;3.88;;;16.70;98.90;;;;;;5003022;28;20025;-39
2022/07/28 00:35:51;;;;;;;4.38;3.95;;;16.70;99.30;;;;;;5003922;28;20034;-38
2022/07/28 00:38:17;;;;;;;5.20;3.53;;;16.70;99.60;;;;;;5004902;28;20045;-38
2022/07/28 00:43:27;;;;;;;4.80;3.75;;;16.70;99.50;;;;;;5002539;28;20041;-37
2022/07/28 00:45:52;;;;;;;4.20;3.80;;;16.70;99.90;;;;;;5003181;28;20034;-40
2022/07/28 00:48:18;;;;;;;4.38;3.97;;;16.60;99.90;;;;;;5004015;28;20037;-38
2022/07/28 00:50:44;;;;;;;4.15;3.50;;;16.70;99.90;;;;;;5001914;28;20083;-40
2022/07/28 00:53:09;;;;;;;4.85;3.95;;;16.70;99.90;;;;;;5004643;28;20037;-39
2022/07/28 00:55:37;;;;;;;4.80;3.92;;;16.70;99.90;;;;;;5004428;28;20026;-38
2022/07/28 00:58:03;;;;;;;4.40;4.00;;;16.70;99.70;;;;;;5002171;28;20029;-36
2022/07/28 01:00:28;;;;;;;5.10;4.05;;;16.70;99.90;;;;;;5004399;28;20039;-36
2022/07/28 01:02:54;;;;;;;4.47;4.05;;;16.60;99.90;;;;;;4998732;28;20481;-34
2022/07/28 01:05:20;;;;;;;4.93;3.83;;;16.50;99.90;;;;;;4996670;28;20410;-33
2022/07/28 01:08:04;;;;;;;4.72;3.80;;;16.50;99.90;;;;;;5000010;28;20030;-33
2022/07/28 01:10:44;;;;;;;4.32;3.80;;;16.50;99.90;;;;;;4996434;28;20029;-33
2022/07/28 01:13:16;;;;;;;4.28;3.60;;;16.50;99.90;;;;;;4997607;28;21954;-33
2022/07/28 01:15:56;;;;;;;5.10;3.78;;;16.50;99.90;;;;;;4998172;28;20036;-33
2022/07/28 01:18:25;;;;;;;4.90;4.43;;;16.60;99.90;;;;;;4997208;28;20030;-33
2022/07/28 01:21:02;;;;;;;5.80;4.18;;;16.60;99.90;;;;;;4998016;28;20030;-34
2022/07/28 01:23:30;;;;;;;6.88;4.13;;;16.40;99.90;;;;;;4995477;28;20040;-33
2022/07/28 01:25:59;;;;;;;6.57;4.18;;;16.40;99.90;;;;;;4999173;28;20030;-33
2022/07/28 01:29:02;;;;;;;5.05;4.65;;;16.20;99.90;;;;;;4999679;28;20033;-34
2022/07/28 01:31:36;;;;;;;4.70;4.28;;;16.10;99.90;;;;;;4999110;28;20030;-34
2022/07/28 01:34:08;;;;;;;5.35;4.47;;;16.10;99.90;;;;;;4997222;28;20030;-33
2022/07/28 01:36:42;;;;;;;5.25;4.47;;;16.20;99.90;;;;;;4999278;28;20060;-33
2022/07/28 01:39:08;;;;;;;4.40;4.00;;;16.00;99.90;;;;;;4996067;28;20040;-32
2022/07/28 01:41:36;;;;;;;5.20;4.80;;;15.90;99.90;;;;;;4999098;28;20030;-35
2022/07/28 01:44:05;;;;;;;5.05;4.53;;;15.90;99.90;;;;;;4999197;28;20391;-34
2022/07/28 01:46:32;;;;;;;5.32;4.70;;;15.90;99.90;;;;;;4998195;28;20087;-34
2022/07/28 01:48:59;;;;;;;5.22;4.05;;;15.80;99.90;;;;;;4998210;28;20030;-33
2022/07/28 01:51:28;;;;;;;6.43;4.37;;;15.70;99.90;;;;;;5000670;28;20044;-34
2022/07/28 01:53:58;;;;;;;5.72;4.18;;;15.70;99.90;;;;;;4997736;28;20380;-33
2022/07/28 01:56:27;;;;;;;5.63;4.40;;;15.70;99.90;;;;;;4997680;28;20076;-33
2022/07/28 01:58:54;;;;;;;5.75;4.70;;;15.60;99.90;;;;;;4997901;28;20038;-34
2022/07/28 02:01:22;;;;;;;4.75;4.38;;;15.50;99.90;;;;;;5000252;28;20502;-33
2022/07/28 02:03:50;;;;;;;5.20;4.40;;;15.60;99.90;;;;;;4996872;28;20037;-36
2022/07/28 02:06:18;;;;;;;5.50;4.63;;;15.60;99.90;;;;;;4997849;28;20129;-33
2022/07/28 02:08:47;;;;;;;4.70;4.30;;;15.60;99.90;;;;;;4997529;28;20076;-34
2022/07/28 02:13:57;;;;;;;7.40;4.55;;;15.80;99.90;;;;;;4999026;28;20053;-34
2022/07/28 02:16:25;;;;;;;4.70;4.25;;;15.90;99.90;;;;;;4995757;28;20411;-33
2022/07/28 02:18:54;;;;;;;6.85;4.43;;;15.90;99.90;;;;;;4997829;28;20410;-32
2022/07/28 02:21:21;;;;;;;5.72;4.30;;;15.80;99.90;;;;;;4999532;28;20041;-34
2022/07/28 02:23:47;;;;;;;5.47;4.93;;;15.70;99.90;;;;;;4996698;28;20104;-32
2022/07/28 02:26:15;;;;;;;5.88;4.28;;;15.70;99.90;;;;;;4998639;28;20518;-33
2022/07/28 02:28:45;;;;;;;5.28;4.50;;;15.70;99.90;;;;;;4997534;28;20513;-33
2022/07/28 02:31:38;;;;;;;4.75;4.20;;;15.70;99.90;;;;;;4997487;28;20132;-33
2022/07/28 02:34:05;;;;;;;5.00;4.50;;;15.70;99.90;;;;;;4997048;28;20037;-35
2022/07/28 02:36:36;;;;;;;5.50;4.43;;;15.70;99.90;;;;;;4998489;28;20042;-33
2022/07/28 02:39:07;;;;;;;5.10;4.60;;;15.70;99.90;;;;;;4998403;28;20105;-35
2022/07/28 02:41:42;;;;;;;6.00;4.60;;;15.70;99.90;;;;;;4995552;28;20037;-33
2022/07/28 02:44:14;;;;;;;5.80;4.53;;;15.70;99.90;;;;;;4999606;28;20038;-33
2022/07/28 02:46:52;;;;;;;4.95;4.45;;;15.50;99.90;;;;;;4997147;28;20507;-37
2022/07/28 02:49:27;;;;;;;6.93;4.97;;;15.50;99.90;;;;;;4999140;28;20064;-36
2022/07/28 02:51:55;;;;;;;6.10;4.57;;;15.40;99.90;;;;;;4998299;28;20037;-33
2022/07/28 02:54:23;;;;;;;6.50;5.43;;;15.40;99.90;;;;;;4997789;28;20068;-32
2022/07/28 02:56:50;;;;;;;5.43;4.63;;;15.40;99.90;;;;;;4998186;28;20103;-33
2022/07/28 02:59:19;;;;;;;7.33;4.67;;;15.30;99.90;;;;;;4999060;28;20466;-33
2022/07/28 03:01:46;;;;;;;;;;;15.40;99.90;;;;;;4997850;28;20401;-33
2022/07/28 03:04:13;;;;;;;5.57;4.63;;;15.40;99.90;;;;;;4997806;28;20036;-33
2022/07/28 03:06:40;;;;;;;5.50;4.78;;;15.50;99.90;;;;;;4997499;28;20438;-35
2022/07/28 03:09:08;;;;;;;5.70;4.78;;;15.60;99.90;;;;;;4997827;28;20030;-33
2022/07/28 03:11:33;;;;;;;;;;;15.60;99.90;;;;;;4997437;28;20030;-33
2022/07/28 03:13:59;;;;;;;5.97;4.95;;;15.70;99.90;;;;;;4998122;28;19917;-34
2022/07/28 03:16:25;;;;;;;8.05;5.32;;;15.70;99.90;;;;;;4996357;28;20674;-34
2022/07/28 03:18:51;;;;;;;7.80;5.00;;;15.50;99.90;;;;;;4995501;28;20034;-33
2022/07/28 03:21:16;;;;;;;9.65;5.05;;;15.50;99.90;;;;;;4996539;28;20045;-33
2022/07/28 03:23:49;;;;;;;4.72;4.25;;;15.20;99.90;;;;;;4998918;28;20041;-33
2022/07/28 03:26:29;;;;;;;6.70;4.85;;;15.20;99.90;;;;;;4995438;28;20036;-34
2022/07/28 03:28:56;;;;;;;6.93;4.93;;;15.10;99.90;;;;;;4994887;28;20022;-33
2022/07/28 03:31:24;;;;;;;6.10;4.53;;;15.00;99.90;;;;;;4995362;28;20045;-34
2022/07/28 03:33:50;;;;;;;7.63;4.82;;;15.00;99.90;;;;;;4996427;28;20145;-34
2022/07/28 03:36:23;;;;;;;6.10;4.68;;;15.00;99.90;;;;;;4997114;28;20454;-33
2022/07/28 03:38:54;;;;;;;5.35;4.85;;;15.00;99.90;;;;;;4994486;28;20487;-33
2022/07/28 03:41:21;;;;;;;8.10;5.05;;;15.00;99.90;;;;;;4999190;28;20070;-33
2022/07/28 03:43:48;;;;;;;5.97;4.83;;;14.90;99.90;;;;;;4996652;28;20045;-33
2022/07/28 03:46:13;;;;;;;7.40;5.07;;;14.80;99.90;;;;;;4997150;28;20292;-34
2022/07/28 03:48:39;;;;;;;6.13;5.40;;;14.70;99.90;;;;;;4995843;28;20084;-33
2022/07/28 03:51:04;;;;;;;5.70;4.88;;;14.70;99.90;;;;;;4997770;28;20042;-34
2022/07/28 03:53:30;;;;;;;8.25;5.90;;;14.70;99.90;;;;;;4996692;28;20042;-33
2022/07/28 03:55:56;;;;;;;6.28;5.60;;;14.80;99.90;;;;;;4996732;28;20042;-33
2022/07/28 03:58:24;;;;;;;8.70;5.78;;;14.90;99.90;;;;;;4996797;28;20041;-33
2022/07/28 04:00:50;;;;;;;7.75;5.50;;;14.80;99.90;;;;;;5003012;28;20046;-34
2022/07/28 04:03:17;;;;;;;7.65;6.13;;;14.90;99.90;;;;;;5002352;28;20372;-34
2022/07/28 04:05:43;;;;;;;7.63;5.65;;;14.80;99.90;;;;;;5000565;28;20037;-33
2022/07/28 04:08:08;;;;;;;7.28;5.60;;;14.80;99.90;;;;;;5000055;28;20060;-33
2022/07/28 04:10:34;;;;;;;9.23;5.88;;;14.80;99.90;;;;;;5001295;28;20026;-33
2022/07/28 04:13:00;;;;;;;6.90;6.30;;;14.90;99.90;;;;;;4999589;28;20136;-33
2022/07/28 04:15:27;;;;;;;6.93;5.65;;;14.90;99.90;;;;;;5003197;28;20310;-33
2022/07/28 04:17:54;;;;;;;7.07;5.70;;;15.00;99.90;;;;;;4997836;28;20071;-34
2022/07/28 04:20:21;;;;;;;8.70;5.57;;;15.10;99.90;;;;;;5000196;28;20052;-35
2022/07/28 04:22:48;;;;;;;8.37;5.80;;;15.00;99.90;;;;;;5000959;28;20030;-34
2022/07/28 04:25:15;;;;;;;8.95;5.90;;;14.90;99.90;;;;;;5001421;28;20299;-33
2022/07/28 04:27:42;;;;;;;8.18;5.47;;;14.80;99.90;;;;;;5003151;28;20073;-33
2022/07/28 04:30:17;;;;;;;9.52;6.03;;;14.80;99.90;;;;;;4998168;28;20038;-35
2022/07/28 04:32:44;;;;;;;6.88;6.18;;;14.70;99.90;;;;;;5000340;28;20076;-33
2022/07/28 04:35:11;;;;;;;9.25;6.65;;;14.70;99.90;;;;;;4998758;28;20454;-33
2022/07/28 04:37:38;;;;;;;8.30;6.32;;;14.70;99.90;;;;;;4998178;28;20042;-33
2022/07/28 04:40:05;;;;;;;7.10;6.10;;;14.70;99.90;;;;;;4999206;28;20036;-34
2022/07/28 04:42:31;;;;;;;9.13;6.65;;;14.70;99.90;;;;;;4998375;28;20382;-35
2022/07/28 04:44:57;;;;;;;9.32;6.68;;;14.70;99.90;;;;;;5000608;28;20042;-33
2022/07/28 04:47:23;;;;;;;9.30;6.88;;;14.70;99.90;;;;;;4999154;28;20042;-32
2022/07/28 04:49:49;;;;;;;8.45;6.28;;;14.80;99.90;;;;;;4998815;28;20088;-32
2022/07/28 04:52:15;;;;;;;11.18;7.97;;;14.90;99.90;;;;;;5000217;28;20091;-33
2022/07/28 04:54:41;;;;;;;8.25;7.22;;;14.90;99.90;;;;;;4996783;28;20046;-33
2022/07/28 04:57:07;;;;;;;10.90;7.75;;;15.10;99.90;;;;;;5000755;28;20111;-32
2022/07/28 04:59:34;;;;;;;9.63;7.25;;;15.10;99.90;;;;;;4999150;28;20376;-33
2022/07/28 05:02:00;;;;;;;15.13;7.65;;;15.10;99.90;;;;;;4998880;28;20499;-32
2022/07/28 05:04:26;;;;;;;8.70;7.30;;;15.20;99.90;;;;;;4997805;28;20034;-32
2022/07/28 05:06:51;;;;;;;9.63;7.78;;;15.20;99.90;;;;;;4997476;28;20441;-32
2022/07/28 05:09:17;;;;;;;10.25;7.82;;;15.30;99.90;;;;;;4997001;28;20037;-32
2022/07/28 05:11:43;;;;;;;11.45;7.05;;;15.40;99.90;;;;;;4999853;28;20108;-33
2022/07/28 05:14:09;;;;;;;10.38;8.40;;;15.50;99.90;;;;;;4994724;28;20116;-32
2022/07/28 05:16:34;;;;;;;10.93;7.60;;;15.60;99.90;;;;;;4995501;28;20073;-34
2022/07/28 05:19:00;;;;;;;11.80;8.38;;;15.70;99.90;;;;;;4999073;28;20053;-33
2022/07/28 05:21:26;;;;;;;12.93;8.60;;;15.80;99.90;;;;;;5000059;28;20057;-33
2022/07/28 05:23:51;;;;;;;14.07;8.95;;;15.90;99.90;;;;;;4998216;28;20056;-35
2022/07/28 05:26:17;;;;;;;11.90;8.52;;;16.10;99.90;;;;;;5000722;28;20451;-33
2022/07/28 05:28:43;;;;;;;9.68;7.70;;;16.30;99.90;;;;;;4998847;28;20491;-33
2022/07/28 05:31:08;;;;;;;12.23;8.50;;;16.40;99.90;;;;;;5002444;28;20088;-33
2022/07/28 05:33:35;;;;;;;11.57;8.95;;;16.60;99.90;;;;;;4998300;28;20026;-33
2022/07/28 05:36:01;;;;;;;12.63;9.15;;;16.80;99.90;;;;;;5001900;28;20038;-33
2022/07/28 05:38:27;;;;;;;10.82;7.78;;;16.90;99.90;;;;;;4998171;28;20502;-36
2022/07/28 05:40:53;;;;;;;11.02;7.95;;;16.90;99.90;;;;;;4996158;28;20144;-33
2022/07/28 05:43:19;;;;;;;11.90;9.15;;;17.00;99.90;;;;;;5007458;28;20117;-33
2022/07/28 05:45:46;;;;;;;11.57;8.43;;;17.10;99.90;;;;;;5003785;28;20030;-33
2022/07/28 05:48:11;;;;;;;13.82;8.52;;;17.20;99.90;;;;;;5003233;28;20037;-33
2022/07/28 05:50:37;;;;;;;13.52;8.48;;;17.20;99.90;;;;;;5017549;28;21289;-35
2022/07/28 05:53:03;;;;;;;11.75;9.25;;;17.30;99.90;;;;;;5004787;28;20057;-33
2022/07/28 05:55:29;;;;;;;14.00;9.13;;;17.40;99.90;;;;;;5000966;28;20602;-35
2022/07/28 05:57:56;;;;;;;23.05;9.20;;;17.40;99.90;;;;;;5004520;28;20478;-33
2022/07/28 06:00:22;;;;;;;12.60;9.50;;;17.50;99.90;;;;;;5003736;28;20407;-32
2022/07/28 06:02:49;;;;;;;10.50;8.40;;;17.50;99.90;;;;;;5002540;28;20045;-32
2022/07/28 06:05:19;;;;;;;12.95;9.20;;;17.60;99.90;;;;;;5001151;28;20121;-34
2022/07/28 06:07:46;;;;;;;9.38;7.78;;;17.60;99.90;;;;;;5001303;28;20778;-33
2022/07/28 06:10:14;;;;;;;11.88;9.20;;;17.60;99.90;;;;;;5001639;28;20504;-33
2022/07/28 06:12:44;;;;;;;12.70;8.82;;;17.80;99.90;;;;;;5005899;28;20030;-33
2022/07/28 06:15:19;;;;;;;11.30;8.40;;;17.90;99.90;;;;;;4998620;28;20044;-33
2022/07/28 06:17:45;;;;;;;11.65;8.90;;;17.90;99.90;;;;;;5002692;28;20037;-33
2022/07/28 06:20:11;;;;;;;10.27;8.13;;;18.00;99.90;;;;;;4995163;28;21828;-33
2022/07/28 06:22:45;;;;;;;14.82;8.95;;;18.10;99.90;;;;;;5001482;28;20125;-34
2022/07/28 06:25:22;;;;;;;12.73;8.23;;;18.30;99.90;;;;;;4999663;28;20026;-33
2022/07/28 06:27:49;;;;;;;9.38;8.32;;;18.40;99.90;;;;;;4998355;28;20061;-33
2022/07/28 06:30:15;;;;;;;10.63;8.80;;;18.40;99.90;;;;;;4996095;28;20061;-33
2022/07/28 06:32:42;;;;;;;10.18;8.75;;;18.40;99.90;;;;;;5002931;28;20116;-35
2022/07/28 06:35:08;;;;;;;9.40;7.72;;;18.40;99.90;;;;;;5004526;28;20022;-33
2022/07/28 06:37:34;;;;;;;10.77;7.75;;;18.60;99.90;;;;;;5004565;28;20051;-33
2022/07/28 06:39:59;;;;;;;12.90;8.75;;;18.70;99.90;;;;;;5004845;28;20041;-33
2022/07/28 06:42:25;;;;;;;8.43;7.40;;;18.90;99.90;;;;;;5003667;28;20037;-33
2022/07/28 06:44:51;;;;;;;9.55;8.27;;;19.00;99.90;;;;;;5001652;28;20065;-34
2022/07/28 06:47:18;;;;;;;10.63;7.90;;;19.10;99.90;;;;;;5000467;28;20038;-33
2022/07/28 06:49:43;;;;;;;10.85;7.53;;;19.20;99.90;;;;;;5001904;28;20034;-33
2022/07/28 06:52:09;;;;;;;9.18;8.25;;;19.30;99.90;;;;;;5001016;28;20048;-33
2022/07/28 06:54:35;;;;;;;10.23;8.10;;;19.30;99.90;;;;;;5000682;28;20050;-34
2022/07/28 06:57:01;;;;;;;10.35;7.70;;;19.40;99.90;;;;;;5003011;28;20559;-33
2022/07/28 06:59:26;;;;;;;9.77;7.25;;;19.40;99.90;;;;;;5003303;28;20112;-33
2022/07/28 07:01:52;;;;;;;8.65;7.35;;;19.60;99.90;;;;;;5003654;28;20041;-34
2022/07/28 07:04:17;;;;;;;9.68;7.32;;;19.80;99.90;;;;;;5003597;28;20049;-34
2022/07/28 07:06:43;;;;;;;9.93;7.30;;;20.00;99.90;;;;;;4999325;28;20038;-33
2022/07/28 07:09:09;;;;;;;9.77;7.93;;;20.00;99.90;;;;;;5004550;28;20097;-33
2022/07/28 07:11:35;;;;;;;8.75;7.45;;;19.90;99.90;;;;;;5003059;28;20022;-33
2022/07/28 07:14:01;;;;;;;10.48;7.22;;;20.00;99.90;;;;;;5001969;28;20380;-34
2022/07/28 07:16:27;;;;;;;9.40;6.95;;;20.10;99.00;;;;;;5000784;28;20034;-33
2022/07/28 07:18:53;;;;;;;8.27;6.95;;;20.30;99.90;;;;;;5001497;28;20029;-34
2022/07/28 07:21:19;;;;;;;8.57;7.63;;;20.40;98.20;;;;;;5002554;28;20113;-34
2022/07/28 07:23:44;;;;;;;10.02;7.45;;;20.50;98.70;;;;;;5002851;28;20076;-34
2022/07/28 07:26:10;;;;;;;7.68;6.45;;;20.40;98.60;;;;;;5001757;28;20484;-34
2022/07/28 07:28:36;;;;;;;8.05;6.50;;;20.50;99.40;;;;;;5003899;28;20026;-33
2022/07/28 07:31:01;;;;;;;7.32;6.63;;;20.60;99.00;;;;;;5001869;28;20041;-34
2022/07/28 07:33:27;;;;;;;7.65;6.95;;;20.80;98.30;;;;;;5005443;28;20036;-33
2022/07/28 07:35:53;;;;;;;8.32;6.75;;;20.80;97.90;;;;;;5005143;28;20029;-32
2022/07/28 07:38:18;;;;;;;8.25;6.65;;;21.00;97.50;;;;;;5011880;28;20030;-33
2022/07/28 07:40:44;;;;;;;11.35;6.97;;;20.90;97.40;;;;;;5010334;28;20034;-33
2022/07/28 07:43:09;;;;;;;8.55;7.05;;;20.90;96.00;;;;;;5012620;28;20025;-33
2022/07/28 07:45:35;;;;;;;9.43;6.90;;;20.90;97.30;;;;;;5008307;28;20037;-33
2022/07/28 07:48:02;;;;;;;7.72;6.25;;;21.10;97.50;;;;;;5006244;28;20087;-33
2022/07/28 07:50:28;;;;;;;7.38;6.13;;;21.20;96.80;;;;;;5001954;28;20015;-33
2022/07/28 07:52:54;;;;;;;7.80;6.72;;;21.40;96.20;;;;;;5004807;28;20033;-34
2022/07/28 07:55:20;;;;;;;9.10;6.63;;;21.50;94.40;;;;;;5007203;28;20046;-32
2022/07/28 07:57:46;;;;;;;8.82;6.80;;;21.50;94.40;;;;;;5007694;28;20034;-34
2022/07/28 08:00:13;;;;;;;7.82;6.65;;;21.70;95.30;;;;;;5006674;28;20044;-34
2022/07/28 08:02:39;;;;;;;9.75;6.90;;;21.70;95.10;;;;;;5007199;28;20503;-33
2022/07/28 08:05:05;;;;;;;7.03;6.30;;;21.80;93.10;;;;;;5004583;28;20037;-34
2022/07/28 08:07:31;;;;;;;8.45;6.47;;;21.70;94.10;;;;;;5006838;28;20030;-32
2022/07/28 08:09:56;;;;;;;6.82;6.22;;;22.00;92.60;;;;;;5007856;28;20022;-33
2022/07/28 08:12:22;;;;;;;9.30;6.10;;;22.00;93.10;;;;;;5006917;28;20041;-33
2022/07/28 08:14:48;;;;;;;8.73;6.50;;;22.30;91.90;;;;;;5006606;28;20446;-34
2022/07/28 08:17:14;;;;;;;7.85;6.25;;;22.20;90.00;;;;;;5000725;28;20034;-36
2022/07/28 08:19:39;;;;;;;9.10;6.63;;;22.30;90.40;;;;;;5002751;28;20092;-34
2022/07/28 08:22:05;;;;;;;7.55;6.45;;;22.30;91.40;;;;;;5004127;28;20320;-34
2022/07/28 08:24:31;;;;;;;6.82;5.95;;;22.50;89.80;;;;;;5006141;28;20038;-33
2022/07/28 08:26:56;;;;;;;7.97;5.90;;;22.60;89.30;;;;;;5000513;28;20088;-32
2022/07/28 08:29:22;;;;;;;7.47;6.78;;;22.60;91.20;;;;;;5002301;28;20429;-34
2022/07/28 08:31:47;;;;;;;6.85;6.15;;;22.70;87.10;;;;;;5000481;28;20061;-33
2022/07/28 08:34:13;;;;;;;6.40;5.80;;;22.80;88.30;;;;;;5003188;28;22554;-34
2022/07/28 08:36:39;;;;;;;9.02;5.88;;;23.00;84.20;;;;;;5004995;28;20056;-34
2022/07/28 08:39:04;;;;;;;7.13;6.43;;;23.20;86.30;;;;;;5006206;28;20100;-35
2022/07/28 08:41:53;;;;;;;7.63;5.72;;;23.20;78.60;;;;;;5005483;28;20402;-33
2022/07/28 08:44:37;;;;;;;9.95;5.90;;;23.20;81.10;;;;;;5003025;28;20499;-33
2022/07/28 08:47:06;;;;;;;8.38;6.43;;;23.60;83.50;;;;;;5006529;28;20033;-33
2022/07/28 08:49:34;;;;;;;10.23;6.32;;;23.50;78.60;;;;;;5005397;28;20391;-33
2022/07/28 08:52:00;;;;;;;;;;;23.70;80.70;;;;;;5004204;28;20037;-34
2022/07/28 08:54:27;;;;;;;9.02;6.53;;;23.60;80.90;;;;;;5003708;28;20310;-36
2022/07/28 08:56:54;;;;;;;8.10;5.75;;;23.60;77.70;;;;;;5002617;28;20026;-34
2022/07/28 08:59:20;;;;;;;6.70;6.00;;;23.50;76.70;;;;;;5002251;28;20038;-32
2022/07/28 09:01:47;;;;;;;11.43;6.40;;;23.60;81.40;;;;;;5003946;28;20293;-32
2022/07/28 09:04:14;;;;;;;8.27;6.05;;;23.90;77.70;;;;;;5004657;28;20500;-33
2022/07/28 09:06:41;;;;;;;7.38;6.22;;;24.00;74.30;;;;;;5003834;28;20038;-33
2022/07/28 09:09:08;;;;;;;7.90;6.85;;;24.00;74.30;;;;;;5002805;28;20411;-34
2022/07/28 09:11:37;;;;;;;6.43;5.83;;;24.00;74.30;;;;;;5003980;28;20100;-32
2022/07/28 09:14:04;;;;;;;8.75;6.68;;;24.00;74.30;;;;;;5000208;28;20037;-33
2022/07/28 09:16:30;;;;;;;9.13;6.72;;;23.90;72.50;;;;;;5004733;28;20022;-35
2022/07/28 09:18:56;;;;;;;7.88;6.18;;;24.00;75.10;;;;;;4999146;28;20068;-32
2022/07/28 09:21:22;;;;;;;7.53;6.53;;;24.10;72.70;;;;;;5002071;28;20107;-34
2022/07/28 09:23:48;;;;;;;6.88;5.65;;;24.30;69.40;;;;;;5002550;28;20517;-34
2022/07/28 09:26:15;;;;;;;8.02;6.10;;;24.20;70.00;;;;;;5003388;28;20132;-32
2022/07/28 09:28:56;;;;;;;7.78;6.03;;;24.30;71.50;;;;;;4998802;28;20034;-33
2022/07/28 09:31:23;;;;;;;7.65;6.20;;;24.50;67.00;;;;;;5004477;28;20535;-35
2022/07/28 09:34:07;;;;;;;7.97;5.82;;;24.60;65.60;;;;;;5002128;28;20095;-34
2022/07/28 09:36:40;;;;;;;8.32;5.60;;;24.50;64.00;;;;;;5001828;28;20053;-34
2022/07/28 09:39:06;;;;;;;6.30;5.32;;;24.60;66.50;;;;;;5003127;28;20060;-33
2022/07/28 09:41:48;;;;;;;6.82;5.57;;;24.50;64.30;;;;;;5004793;28;20434;-32
2022/07/28 09:44:18;;;;;;;8.90;6.28;;;24.60;67.30;;;;;;5004835;28;20396;-34
2022/07/28 09:46:44;;;;;;;16.65;6.47;;;24.80;66.40;;;;;;5004076;28;20033;-34
2022/07/28 09:49:09;;;;;;;9.77;6.18;;;24.60;64.80;;;;;;5005212;28;20026;-34
2022/07/28 09:51:35;;;;;;;7.43;5.65;;;24.80;62.90;;;;;;5003376;28;20030;-35
2022/07/28 09:54:09;;;;;;;7.47;5.30;;;24.90;64.50;;;;;;5004838;28;20038;-34
2022/07/28 09:56:45;;;;;;;8.38;5.68;;;24.90;62.90;;;;;;5003279;28;20108;-34
2022/07/28 09:59:11;;;;;;;6.43;5.32;;;24.90;62.70;;;;;;5005646;28;20029;-33
2022/07/28 10:01:59;;;;;;;7.27;5.03;;;25.10;63.50;;;;;;5003225;28;20037;-33
2022/07/28 10:04:29;;;;;;;6.18;5.03;;;25.40;58.70;;;;;;5002977;28;20124;-33
2022/07/28 10:07:08;;;;;;;9.43;4.88;;;25.60;58.90;;;;;;5001642;28;20104;-37
2022/07/28 10:09:34;;;;;;;6.63;4.90;;;25.70;57.60;;;;;;5000515;28;20075;-34
2022/07/28 10:12:36;;;;;;;4.72;4.22;;;25.40;58.00;;;;;;5001014;28;20034;-34
2022/07/28 10:17:57;;;;;;;5.00;4.50;;;25.30;59.50;;;;;;5000110;28;20037;-33
2022/07/28 10:20:25;;;;;;;6.20;4.50;;;25.50;57.40;;;;;;5001663;28;20394;-37
2022/07/28 10:22:54;;;;;;;5.22;4.00;;;25.80;55.40;;;;;;5003750;28;20025;-33
2022/07/28 10:25:21;;;;;;;4.20;3.80;;;25.90;59.20;;;;;;5002503;28;20037;-34
2022/07/28 10:27:48;;;;;;;5.10;3.67;;;25.80;55.70;;;;;;5000834;28;20103;-33
2022/07/28 10:30:14;;;;;;;5.50;3.75;;;26.00;55.60;;;;;;5002720;28;20038;-33
2022/07/28 10:32:42;;;;;;;8.02;3.85;;;25.90;52.60;;;;;;5000690;28;20030;-34
2022/07/28 10:35:09;;;;;;;;;;;25.90;54.00;;;;;;5002921;28;20479;-35
2022/07/28 10:37:57;;;;;;;5.10;3.80;;;25.90;54.00;;;;;;4998122;28;20294;-33
2022/07/28 10:40:30;;;;;;;4.15;3.17;;;26.00;53.60;;;;;;5001054;28;20087;-34
2022/07/28 10:42:58;;;;;;;6.20;3.75;;;26.30;51.50;;;;;;5001943;28;20026;-33
2022/07/28 10:45:25;;;;;;;4.47;3.70;;;26.40;53.70;;;;;;5001446;28;20080;-33
2022/07/28 10:47:50;;;;;;;4.57;3.08;;;26.80;53.90;;;;;;5003588;28;20021;-33
2022/07/28 10:50:18;;;;;;;9.05;3.92;;;26.90;51.20;;;;;;5000218;28;20570;-34
2022/07/28 10:52:45;;;;;;;4.43;3.60;;;26.60;50.50;;;;;;5000186;28;20025;-35
2022/07/28 10:55:26;;;;;;;3.60;3.30;;;26.40;50.50;;;;;;5001518;28;20089;-36
2022/07/28 10:58:19;;;;;;;4.03;3.67;;;26.20;51.50;;;;;;5003194;28;20108;-33
2022/07/28 11:00:48;;;;;;;4.85;3.67;;;26.30;52.50;;;;;;5002311;28;20046;-33
2022/07/28 11:03:41;;;;;;;6.70;3.58;;;26.50;50.70;;;;;;5004123;28;20033;-34
2022/07/28 11:06:35;;;;;;;12.48;3.58;;;26.40;49.50;;;;;;5003818;28;20383;-33
2022/07/28 11:09:16;;;;;;;4.60;2.92;;;26.20;50.30;;;;;;5007062;28;20670;-34
2022/07/28 11:11:49;;;;;;;4.38;3.45;;;26.60;51.40;;;;;;5006948;28;20029;-33
2022/07/28 11:14:24;;;;;;;3.80;3.30;;;26.30;48.70;;;;;;5007465;28;20112;-36
2022/07/28 11:16:59;;;;;;;3.13;2.83;;;25.70;50.10;;;;;;5006586;28;20060;-33
2022/07/28 11:19:25;;;;;;;3.80;3.13;;;25.80;49.60;;;;;;5005799;28;20136;-33
2022/07/28 11:25:03;;;;;;;5.05;3.72;;;26.00;50.60;;;;;;5004869;28;20057;-33
2022/07/28 11:27:41;;;;;;;5.35;3.33;;;26.20;49.50;;;;;;5004831;28;20686;-35
2022/07/28 11:30:31;;;;;;;4.03;3.50;;;25.80;48.70;;;;;;5004406;28;20038;-33
2022/07/28 11:32:58;;;;;;;3.92;3.10;;;25.80;49.60;;;;;;4998841;28;20554;-36
2022/07/28 11:35:25;;;;;;;4.57;3.00;;;26.00;50.20;;;;;;5001740;28;20034;-35
2022/07/28 11:38:00;;;;;;;4.05;2.95;;;26.30;51.60;;;;;;5005084;28;20837;-33
2022/07/28 11:40:52;;;;;;;4.60;2.70;;;26.30;50.30;;;;;;5003404;28;20040;-33
2022/07/28 11:43:28;;;;;;;3.72;3.17;;;26.20;47.70;;;;;;5003941;28;20089;-33
2022/07/28 11:46:07;;;;;;;6.57;3.03;;;26.40;46.50;;;;;;5004982;28;20049;-33
2022/07/28 11:48:34;;;;;;;4.05;2.90;;;26.50;46.90;;;;;;5006565;28;20034;-33
2022/07/28 11:51:03;;;;;;;3.25;2.45;;;26.60;44.90;;;;;;5004828;28;20030;-34
2022/07/28 11:53:52;;;;;;;3.10;2.72;;;26.50;44.60;;;;;;5008788;28;20028;-33
2022/07/28 11:56:30;;;;;;;3.45;2.55;;;26.80;43.80;;;;;;5005253;28;20061;-35
2022/07/28 11:59:05;;;;;;;3.13;2.83;;;26.70;43.00;;;;;;5006160;28;20851;-34
2022/07/28 12:01:33;;;;;;;3.47;3.10;;;26.70;45.10;;;;;;5007260;28;20038;-33
2022/07/28 12:03:59;;;;;;;4.05;2.90;;;26.60;46.40;;;;;;5008655;28;20022;-36
2022/07/28 12:06:34;;;;;;;3.08;2.65;;;26.70;43.70;;;;;;5006424;28;20483;-34
2022/07/28 12:09:03;;;;;;;3.00;2.70;;;26.90;45.80;;;;;;5008543;28;20471;-34
2022/07/28 12:11:40;;;;;;;6.20;3.15;;;26.70;45.10;;;;;;5006646;28;20026;-35
2022/07/28 12:14:06;;;;;;;6.43;2.88;;;26.60;44.10;;;;;;5007273;28;20018;-35
2022/07/28 12:16:34;;;;;;;2.77;2.57;;;26.80;45.10;;;;;;5003776;28;20117;-34
2022/07/28 12:19:01;;;;;;;3.58;2.42;;;27.20;42.30;;;;;;5006884;28;20079;-33
2022/07/28 12:21:41;;;;;;;2.90;2.55;;;27.00;41.90;;;;;;5005827;28;20030;-36
2022/07/28 12:24:09;;;;;;;2.70;2.25;;;27.20;40.20;;;;;;5006666;28;20026;-33
2022/07/28 12:26:35;;;;;;;9.55;2.78;;;27.00;41.00;;;;;;5003572;28;20033;-34
2022/07/28 12:29:02;;;;;;;3.00;2.40;;;27.10;40.40;;;;;;5003782;28;20112;-34
2022/07/28 12:31:29;;;;;;;3.08;2.40;;;26.90;42.00;;;;;;5004966;28;20742;-34
2022/07/28 12:33:58;;;;;;;3.67;2.65;;;27.00;41.40;;;;;;5005858;28;20387;-35
2022/07/28 12:36:25;;;;;;;3.72;2.72;;;27.00;42.30;;;;;;5002665;28;20505;-34
2022/07/28 12:38:51;;;;;;;3.05;2.58;;;27.10;45.00;;;;;;5003110;28;20510;-37
2022/07/28 12:41:18;;;;;;;2.45;2.35;;;27.20;43.20;;;;;;5003559;28;20400;-33
2022/07/28 12:43:52;;;;;;;2.72;2.53;;;27.30;43.00;;;;;;5005021;28;20423;-35
2022/07/28 12:46:23;;;;;;;5.80;2.70;;;27.10;42.50;;;;;;5004306;28;20038;-35
2022/07/28 12:48:50;;;;;;;4.75;2.65;;;27.20;42.50;;;;;;5004606;28;20113;-35
2022/07/28 12:51:32;;;;;;;5.35;2.50;;;27.00;44.30;;;;;;5002613;28;20081;-33
2022/07/28 12:53:57;;;;;;;4.05;2.10;;;27.40;41.90;;;;;;4997251;28;20030;-36
2022/07/28 12:56:23;;;;;;;2.30;2.15;;;27.40;40.30;;;;;;5003281;28;20025;-33
2022/07/28 12:59:09;;;;;;;2.65;2.30;;;27.20;40.10;;;;;;5000305;28;20092;-34
2022/07/28 13:01:55;;;;;;;2.67;2.30;;;27.10;41.40;;;;;;5001623;28;20530;-33
2022/07/28 13:04:45;;;;;;;3.25;2.40;;;27.00;42.00;;;;;;5001042;28;20041;-34
2022/07/28 13:07:22;;;;;;;3.42;2.20;;;27.00;42.20;;;;;;5001174;28;21288;-34